Time;durP1;ratioP1;P1;durP2;ratioP2;P2;SDS_P1;SDS_P2;PMS_P1;PMS_P2;Temp;Humidity;BMP_temperature;BMP_pressure;BME280_temperature;BME280_humidity;BME280_pressure;Samples;Min_cycle;Max_cycle;Signal;HPM_P1;HPM_P2
2022/08/17 00:00:58;;;;;;;43.00;33.97;;;;;;;18.84;100.00;100998.41;2057672;28;20043;-73
2022/08/17 00:02:00;;;;;;;46.63;36.67;;;;;;;18.86;100.00;100996.47;2056077;28;20877;-72
2022/08/17 00:03:08;;;;;;;43.35;34.90;;;;;;;18.82;100.00;100992.19;2055751;28;24908;-72
2022/08/17 00:04:11;;;;;;;42.75;33.22;;;;;;;18.80;100.00;101003.09;2056230;28;35076;-73
2022/08/17 00:05:14;;;;;;;43.13;34.22;;;;;;;18.77;100.00;101002.38;2056330;28;35124;-73
2022/08/17 00:06:24;;;;;;;48.38;37.47;;;;;;;18.79;100.00;101004.06;2056443;28;24224;-73
2022/08/17 00:07:26;;;;;;;49.88;37.42;;;;;;;18.78;100.00;101004.16;2056936;28;23875;-73
2022/08/17 00:08:35;;;;;;;51.00;39.05;;;;;;;18.76;100.00;101011.50;2056616;28;20035;-73
2022/08/17 00:09:37;;;;;;;49.55;36.75;;;;;;;18.76;100.00;101006.06;2056534;28;24349;-73
2022/08/17 00:10:40;;;;;;;45.80;35.92;;;;;;;18.73;100.00;101006.25;2056234;28;29498;-73
2022/08/17 00:11:43;;;;;;;44.70;35.60;;;;;;;18.69;100.00;101011.81;2047560;28;29100;-73
2022/08/17 00:13:14;;;;;;;39.25;31.50;;;;;;;18.65;100.00;101007.53;2053870;28;20051;-73
2022/08/17 00:14:18;;;;;;;33.65;29.02;;;;;;;18.63;100.00;101006.75;2055799;28;28018;-73
2022/08/17 00:15:22;;;;;;;43.35;35.55;;;;;;;18.62;100.00;101005.00;2056052;28;22325;-73
2022/08/17 00:16:33;;;;;;;32.72;29.05;;;;;;;18.61;100.00;101000.56;2056121;28;32145;-73
2022/08/17 00:17:55;;;;;;;43.25;34.50;;;;;;;18.62;100.00;101004.13;2056419;28;20035;-73
2022/08/17 00:19:05;;;;;;;37.28;32.42;;;;;;;18.58;100.00;100997.13;2048018;28;39518;-73
2022/08/17 00:20:10;;;;;;;50.38;37.83;;;;;;;18.58;100.00;100997.13;2048642;28;29682;-73
2022/08/17 00:21:16;;;;;;;49.22;35.83;;;;;;;18.55;100.00;100991.88;2047996;28;37648;-73
2022/08/17 00:22:18;;;;;;;37.08;32.08;;;;;;;18.54;100.00;100996.44;2056075;28;20043;-73
2022/08/17 00:23:36;;;;;;;40.42;33.83;;;;;;;18.52;100.00;100992.94;2053590;28;20813;-73
2022/08/17 00:24:38;;;;;;;45.80;36.25;;;;;;;18.49;100.00;100991.25;2048884;28;24571;-74
2022/08/17 00:25:42;;;;;;;45.55;36.08;;;;;;;18.48;100.00;100996.75;2048403;28;30003;-73
2022/08/17 00:26:45;;;;;;;45.50;35.20;;;;;;;18.49;100.00;100991.25;2050225;28;36336;-73
2022/08/17 00:27:47;;;;;;;49.33;38.45;;;;;;;18.51;100.00;100996.59;2056203;28;20349;-73
2022/08/17 00:28:49;;;;;;;43.05;34.20;;;;;;;18.48;100.00;100996.75;2055579;28;31387;-73
2022/08/17 00:29:51;;;;;;;46.47;36.15;;;;;;;18.47;100.00;100997.72;2055562;28;27138;-73
2022/08/17 00:30:53;;;;;;;44.83;35.58;;;;;;;18.47;100.00;100992.31;2048159;28;30374;-73
2022/08/17 00:31:55;;;;;;;47.40;36.65;;;;;;;18.49;100.00;100993.09;2056198;28;20040;-73
2022/08/17 00:32:57;;;;;;;47.08;38.92;;;;;;;18.49;100.00;100999.38;2055381;28;34058;-74
2022/08/17 00:34:11;;;;;;;43.85;37.05;;;;;;;18.47;100.00;100995.88;2055748;28;29037;-74
2022/08/17 00:35:18;;;;;;;54.67;38.05;;;;;;;18.49;100.00;100993.97;2053990;28;22074;-74
2022/08/17 00:36:22;;;;;;;49.10;38.28;;;;;;;18.48;100.00;100992.22;2048064;28;38646;-73
2022/08/17 00:37:24;;;;;;;46.55;35.83;;;;;;;18.44;100.00;100995.19;2055464;28;27660;-73
2022/08/17 00:38:28;;;;;;;43.95;35.53;;;;;;;18.41;100.00;100995.34;2055279;28;34093;-73
2022/08/17 00:39:30;;;;;;;45.20;37.78;;;;;;;18.41;100.00;101003.47;2047938;28;34715;-73
2022/08/17 00:40:32;;;;;;;42.83;36.30;;;;;;;18.38;100.00;100996.41;2048435;28;30080;-73
2022/08/17 00:41:40;;;;;;;49.08;36.10;;;;;;;18.43;100.00;100999.72;2048437;28;25919;-73
2022/08/17 00:42:44;;;;;;;52.47;39.72;;;;;;;18.37;100.00;101002.75;2048917;28;20055;-73
2022/08/17 00:43:55;;;;;;;42.65;36.20;;;;;;;18.36;100.00;101008.25;2054998;28;41257;-72
2022/08/17 00:44:58;;;;;;;46.15;37.65;;;;;;;18.34;100.00;101008.38;2054330;28;30500;-73
2022/08/17 00:46:11;;;;;;;51.80;42.10;;;;;;;18.37;100.00;101010.03;2055658;28;20082;-73
2022/08/17 00:47:13;;;;;;;46.03;38.38;;;;;;;18.35;100.00;101004.69;2054452;28;30531;-73
2022/08/17 00:48:15;;;;;;;54.50;42.05;;;;;;;18.38;100.00;101009.94;2048672;28;20114;-73
2022/08/17 00:49:30;;;;;;;50.28;40.58;;;;;;;18.38;100.00;101009.09;2048248;28;30328;-73
2022/08/17 00:50:33;;;;;;;53.28;41.47;;;;;;;18.37;100.00;101004.59;2048618;28;23116;-72
2022/08/17 00:51:45;;;;;;;56.90;44.15;;;;;;;18.38;100.00;100996.41;2055897;28;20916;-73
2022/08/17 00:52:54;;;;;;;49.17;41.10;;;;;;;18.37;100.00;100991.91;2055562;28;31563;-73
2022/08/17 00:54:20;;;;;;;51.75;40.95;;;;;;;18.34;100.00;100992.09;2054335;28;20129;-73
2022/08/17 00:55:24;;;;;;;54.33;41.58;;;;;;;18.36;100.00;100982.06;2048881;28;20173;-73
2022/08/17 00:56:33;;;;;;;54.80;42.50;;;;;;;18.36;100.00;100983.88;2055296;28;31659;-73
2022/08/17 00:57:46;;;;;;;54.47;42.45;;;;;;;18.36;100.00;100976.63;2055309;28;36816;-73
2022/08/17 00:58:51;;;;;;;57.10;43.50;;;;;;;18.37;100.00;100983.78;2055574;28;37701;-72
2022/08/17 00:59:59;;;;;;;56.30;42.50;;;;;;;18.36;100.00;100987.47;2055597;28;22757;-73
2022/08/17 01:01:04;;;;;;;50.63;40.13;;;;;;;18.36;100.00;100984.75;2056301;28;20047;-73
2022/08/17 01:02:11;;;;;;;55.28;43.75;;;;;;;18.37;100.00;100980.22;2054078;28;22472;-73
2022/08/17 01:03:24;;;;;;;58.13;43.17;;;;;;;18.37;100.00;100988.34;2056396;28;20999;-72
2022/08/17 01:04:28;;;;;;;47.10;38.25;;;;;;;18.32;100.00;100991.28;2047748;28;23152;-73
2022/08/17 01:05:37;;;;;;;52.90;40.10;;;;;;;18.30;100.00;100996.81;2047655;28;24455;-72
2022/08/17 01:06:41;;;;;;;46.42;36.83;;;;;;;18.29;100.00;100995.06;2049034;28;24926;-73
2022/08/17 01:07:46;;;;;;;54.38;43.70;;;;;;;18.31;100.00;100979.59;2054673;28;20044;-73
2022/08/17 01:08:50;;;;;;;53.67;41.53;;;;;;;18.29;100.00;100986.94;2055407;28;29420;-73
2022/08/17 01:09:53;;;;;;;53.80;40.03;;;;;;;18.27;100.00;100994.28;2055075;28;31982;-73
2022/08/17 01:11:00;;;;;;;46.75;38.35;;;;;;;18.21;100.00;100988.28;2055469;28;22718;-73
2022/08/17 01:12:10;;;;;;;;;;;;;;;18.21;100.00;100994.59;2054991;28;20106;-73
2022/08/17 01:13:13;;;;;;;48.97;38.92;;;;;;;18.16;100.00;100983.16;2055542;28;28461;-72
2022/08/17 01:14:15;;;;;;;58.15;42.53;;;;;;;18.15;100.00;100989.50;2055028;28;36171;-73
2022/08/17 01:15:18;;;;;;;53.97;42.70;;;;;;;18.13;100.00;100991.44;2048791;28;26515;-73
2022/08/17 01:16:28;;;;;;;53.20;43.70;;;;;;;18.11;100.00;100983.38;2047865;28;30616;-73
2022/08/17 01:17:30;;;;;;;46.60;40.85;;;;;;;18.11;100.00;100991.50;2048122;28;27274;-73
2022/08/17 01:18:33;;;;;;;52.65;41.35;;;;;;;18.09;100.00;100989.84;2055456;28;29772;-73
2022/08/17 01:19:39;;;;;;;54.13;43.53;;;;;;;18.09;100.00;100992.56;2055410;28;30373;-73
2022/08/17 01:20:49;;;;;;;61.50;47.05;;;;;;;18.10;100.00;100987.03;2055141;28;20176;-73
2022/08/17 01:22:15;;;;;;;53.90;42.58;;;;;;;18.06;100.00;100993.59;2055658;28;24022;-73
2022/08/17 01:23:19;;;;;;;60.78;44.97;;;;;;;18.05;100.00;100996.38;2054814;28;33958;-73
2022/08/17 01:24:22;;;;;;;54.03;39.17;;;;;;;18.01;100.00;100997.50;2055563;28;20166;-73
2022/08/17 01:25:24;;;;;;;53.88;40.40;;;;;;;17.97;100.00;100996.78;2054505;28;32876;-73
2022/08/17 01:26:28;;;;;;;57.40;43.28;;;;;;;17.96;100.00;100986.03;2055531;28;28227;-73
2022/08/17 01:27:31;;;;;;;54.85;43.08;;;;;;;17.93;100.00;100995.22;2055113;28;22414;-73
2022/08/17 01:28:36;;;;;;;52.80;40.95;;;;;;;17.90;100.00;100989.94;2054678;28;28034;-73
2022/08/17 01:30:00;;;;;;;51.58;40.17;;;;;;;17.85;100.00;100982.03;2048631;28;20782;-73
2022/08/17 01:31:06;;;;;;;52.05;42.08;;;;;;;17.82;100.00;100990.31;2055133;28;22243;-73
2022/08/17 01:32:08;;;;;;;51.53;40.95;;;;;;;17.79;100.00;100990.47;2055326;28;23633;-73
2022/08/17 01:33:10;;;;;;;52.75;40.55;;;;;;;17.79;100.00;100984.19;2055454;28;23944;-74
2022/08/17 01:34:15;;;;;;;64.38;47.45;;;;;;;17.81;100.00;100984.97;2055246;28;24922;-73
2022/08/17 01:35:17;;;;;;;68.22;48.97;;;;;;;17.81;100.00;100983.13;2047664;28;22342;-73
2022/08/17 01:36:20;;;;;;;65.45;48.00;;;;;;;17.83;100.00;100981.22;2047448;28;28096;-73
2022/08/17 01:37:35;;;;;;;62.15;46.95;;;;;;;17.81;100.00;100977.72;2047985;28;25525;-73
2022/08/17 01:38:38;;;;;;;69.93;49.97;;;;;;;17.84;100.00;100980.28;2047903;28;23142;-74
2022/08/17 01:39:49;;;;;;;65.05;48.78;;;;;;;17.83;100.00;100972.22;2047159;28;24313;-73
2022/08/17 01:40:58;;;;;;;59.85;46.50;;;;;;;17.81;100.00;100979.56;2048828;28;28658;-74
2022/08/17 01:42:22;;;;;;;74.13;50.83;;;;;;;17.82;100.00;100982.19;2053435;28;20962;-73
2022/08/17 01:43:56;;;;;;;74.00;52.17;;;;;;;17.88;100.00;100971.06;2047937;28;27070;-73
2022/08/17 01:45:10;;;;;;;63.15;48.30;;;;;;;17.84;100.00;100964.03;2054938;28;29699;-73
2022/08/17 01:46:19;;;;;;;62.10;46.70;;;;;;;17.80;100.00;100973.28;2055034;28;28745;-72
2022/08/17 01:47:22;;;;;;;70.80;49.40;;;;;;;17.82;100.00;100970.47;2055371;28;30993;-73
2022/08/17 01:48:31;;;;;;;68.78;51.47;;;;;;;17.81;100.00;100958.75;2054075;28;27799;-73
2022/08/17 01:49:33;;;;;;;69.97;52.17;;;;;;;17.83;100.00;100961.41;2048179;28;20537;-74
2022/08/17 01:50:51;;;;;;;78.13;54.55;;;;;;;17.85;100.00;100963.09;2047945;28;29886;-73
2022/08/17 01:51:53;;;;;;;66.43;48.63;;;;;;;17.81;100.00;100969.59;2047985;28;20043;-73
2022/08/17 01:53:12;;;;;;;75.30;52.95;;;;;;;17.82;100.00;100968.66;2048110;28;22878;-72
2022/08/17 01:54:18;;;;;;;71.60;50.55;;;;;;;17.80;100.00;100966.97;2054728;28;27998;-73
2022/08/17 01:55:28;;;;;;;76.82;53.03;;;;;;;17.82;100.00;100967.75;2052631;28;30553;-74
2022/08/17 01:56:32;;;;;;;63.13;46.60;;;;;;;17.76;100.00;100966.25;2055073;28;35501;-74
2022/08/17 01:57:35;;;;;;;62.70;47.55;;;;;;;17.73;100.00;100970.00;2055442;28;20046;-74
2022/08/17 01:58:38;;;;;;;64.88;47.17;;;;;;;17.70;100.00;100967.44;2054496;28;25131;-74
2022/08/17 01:59:40;;;;;;;66.22;46.38;;;;;;;17.68;100.00;100966.66;2048308;28;25491;-74
2022/08/17 02:00:45;;;;;;;60.90;46.00;;;;;;;17.67;100.00;100964.91;2047225;28;31050;-74
2022/08/17 02:01:48;;;;;;;71.00;51.92;;;;;;;17.68;100.00;100968.50;2055039;28;33478;-74
2022/08/17 02:02:50;;;;;;;75.53;52.20;;;;;;;17.68;100.00;100963.09;2054936;28;21186;-74
2022/08/17 02:03:53;;;;;;;62.92;46.05;;;;;;;17.67;100.00;100966.75;2055153;28;26718;-74
2022/08/17 02:05:00;;;;;;;76.65;50.75;;;;;;;17.67;100.00;100961.31;2054239;28;33786;-74
2022/08/17 02:06:04;;;;;;;69.82;50.28;;;;;;;17.68;100.00;100963.09;2048293;28;20244;-74
2022/08/17 02:07:06;;;;;;;68.82;49.95;;;;;;;17.67;100.00;100958.63;2054894;28;24561;-74
2022/08/17 02:08:08;;;;;;;70.07;50.05;;;;;;;17.65;100.00;100963.25;2054720;28;26158;-74
2022/08/17 02:09:10;;;;;;;65.25;47.92;;;;;;;17.63;100.00;100965.16;2047321;28;32296;-74
2022/08/17 02:10:12;;;;;;;73.63;50.58;;;;;;;17.61;100.00;100962.53;2047201;28;30784;-74
2022/08/17 02:11:23;;;;;;;68.72;47.88;;;;;;;17.65;100.00;100964.09;2048020;28;20043;-74
2022/08/17 02:12:27;;;;;;;72.35;51.58;;;;;;;17.63;100.00;100963.31;2048191;28;23052;-74
2022/08/17 02:13:39;;;;;;;74.13;52.22;;;;;;;17.65;100.00;100957.81;2047498;28;31896;-74
2022/08/17 02:14:41;;;;;;;80.55;56.42;;;;;;;17.66;100.00;100960.47;2047875;28;25219;-74
2022/08/17 02:15:43;;;;;;;74.05;52.13;;;;;;;17.66;100.00;100951.47;2047629;28;23713;-74
2022/08/17 02:16:44;;;;;;;77.18;52.63;;;;;;;17.64;100.00;100962.38;2054843;28;30922;-74
2022/08/17 02:17:47;;;;;;;80.93;55.53;;;;;;;17.66;100.00;100954.19;2054954;28;24349;-74
2022/08/17 02:18:48;;;;;;;76.38;52.20;;;;;;;17.65;100.00;100958.69;2047873;28;20044;-74
2022/08/17 02:19:51;;;;;;;69.70;48.40;;;;;;;17.63;100.00;100957.91;2047920;28;20044;-74
2022/08/17 02:20:53;;;;;;;69.90;49.35;;;;;;;17.63;100.00;100959.75;2047581;28;33477;-74
2022/08/17 02:21:55;;;;;;;72.85;52.58;;;;;;;17.62;100.00;100956.16;2047357;28;22357;-74
2022/08/17 02:23:01;;;;;;;74.25;51.85;;;;;;;17.61;100.00;100961.66;2048099;28;20044;-74
2022/08/17 02:24:07;;;;;;;62.40;45.03;;;;;;;17.57;100.00;100955.53;2053583;28;32066;-74
2022/08/17 02:25:12;;;;;;;79.82;54.25;;;;;;;17.58;100.00;100956.41;2047368;28;20090;-74
2022/08/17 02:26:14;;;;;;;71.22;52.55;;;;;;;17.58;100.00;100950.97;2047599;28;21450;-74
2022/08/17 02:27:24;;;;;;;69.22;48.08;;;;;;;17.54;100.00;100944.84;2053908;28;35032;-74
2022/08/17 02:28:28;;;;;;;68.72;49.30;;;;;;;17.52;100.00;100952.19;2047698;28;20042;-74
2022/08/17 02:29:30;;;;;;;78.05;50.50;;;;;;;17.53;100.00;100946.69;2055037;28;20788;-74
2022/08/17 02:30:35;;;;;;;78.95;54.25;;;;;;;17.54;100.00;100953.84;2054645;28;29305;-74
2022/08/17 02:31:51;;;;;;;71.32;48.63;;;;;;;17.51;100.00;100951.28;2052866;28;20079;-74
2022/08/17 02:32:54;;;;;;;64.90;47.95;;;;;;;17.53;100.00;100952.09;2047450;28;23749;-74
2022/08/17 02:33:56;;;;;;;74.55;53.05;;;;;;;17.53;100.00;100956.63;2048155;28;23280;-74
2022/08/17 02:35:01;;;;;;;80.93;53.63;;;;;;;17.56;100.00;100954.63;2047395;28;34758;-73
2022/08/17 02:36:07;;;;;;;64.53;46.55;;;;;;;17.53;100.00;100962.03;2047637;28;26300;-74
2022/08/17 02:37:09;;;;;;;66.57;49.10;;;;;;;17.50;100.00;100957.66;2048359;28;20110;-74
2022/08/17 02:38:11;;;;;;;68.57;47.13;;;;;;;17.50;100.00;100960.38;2047297;28;33397;-74
2022/08/17 02:39:13;;;;;;;80.45;52.65;;;;;;;17.53;100.00;100960.22;2047622;28;30718;-74
2022/08/17 02:40:16;;;;;;;68.63;48.10;;;;;;;17.51;100.00;100956.69;2047432;28;31691;-74
2022/08/17 02:41:18;;;;;;;70.30;48.70;;;;;;;17.49;100.00;100957.75;2047717;28;27983;-74
2022/08/17 02:42:27;;;;;;;59.45;45.03;;;;;;;17.48;100.00;100961.38;2047947;28;20189;-73
2022/08/17 02:43:30;;;;;;;74.53;50.10;;;;;;;17.46;100.00;100953.38;2054896;28;31108;-74
2022/08/17 02:44:31;;;;;;;61.05;45.20;;;;;;;17.47;100.00;100960.53;2054110;28;37252;-74
2022/08/17 02:45:40;;;;;;;69.07;49.08;;;;;;;17.47;100.00;100960.53;2048396;28;23128;-73
2022/08/17 02:46:42;;;;;;;80.35;54.40;;;;;;;17.50;100.00;100948.69;2047269;28;30960;-73
2022/08/17 02:47:45;;;;;;;84.13;53.90;;;;;;;17.55;100.00;100950.19;2048137;28;21004;-73
2022/08/17 02:48:47;;;;;;;79.70;54.22;;;;;;;17.51;100.00;100956.69;2047433;28;28215;-74
2022/08/17 02:49:49;;;;;;;79.22;53.28;;;;;;;17.54;100.00;100948.41;2047763;28;25478;-74
2022/08/17 02:50:55;;;;;;;74.22;51.58;;;;;;;17.60;100.00;100947.22;2054775;28;35325;-74
2022/08/17 02:51:57;;;;;;;81.47;55.13;;;;;;;17.61;100.00;100945.41;2046946;28;23436;-73
2022/08/17 02:52:59;;;;;;;76.82;52.47;;;;;;;17.62;100.00;100944.44;2039663;28;20880;-74
2022/08/17 02:54:03;;;;;;;88.13;56.47;;;;;;;17.63;100.00;100944.34;2038726;28;31281;-74
2022/08/17 02:55:31;;;;;;;82.43;56.65;;;;;;;17.64;100.00;100946.13;2050463;28;20050;-73
2022/08/17 02:56:33;;;;;;;85.85;55.28;;;;;;;17.67;100.00;100950.50;2051578;28;22348;-74
2022/08/17 02:57:35;;;;;;;90.28;58.08;;;;;;;17.71;100.00;100952.06;2047150;28;29283;-74
2022/08/17 02:58:37;;;;;;;83.75;55.60;;;;;;;17.72;100.00;100952.00;2047889;28;20055;-74
2022/08/17 02:59:40;;;;;;;88.55;57.67;;;;;;;17.75;100.00;100953.69;2047395;28;30465;-73
2022/08/17 03:00:47;;;;;;;92.55;57.95;;;;;;;17.73;100.00;100955.59;2055226;28;25214;-74
2022/08/17 03:01:49;;;;;;;85.65;57.05;;;;;;;17.71;100.00;100949.38;2055016;28;22809;-73
2022/08/17 03:02:51;;;;;;;84.88;55.30;;;;;;;17.73;100.00;100955.59;2054474;28;30772;-74
2022/08/17 03:03:53;;;;;;;84.63;57.35;;;;;;;17.72;100.00;100959.25;2055041;28;20934;-74
2022/08/17 03:04:55;;;;;;;88.32;58.10;;;;;;;17.75;100.00;100956.41;2054789;28;29796;-73
2022/08/17 03:06:00;;;;;;;86.40;57.10;;;;;;;17.74;100.00;100954.63;2047068;28;21015;-73
2022/08/17 03:07:04;;;;;;;93.25;59.92;;;;;;;17.76;100.00;100955.41;2054254;28;20110;-73
2022/08/17 03:08:06;;;;;;;82.25;54.33;;;;;;;17.72;100.00;100957.41;2054636;28;25655;-74
2022/08/17 03:09:12;;;;;;;79.93;54.63;;;;;;;17.73;100.00;100951.06;2046852;28;36245;-74
2022/08/17 03:10:13;;;;;;;75.28;52.88;;;;;;;17.69;100.00;100951.28;2047178;28;27514;-74
2022/08/17 03:11:15;;;;;;;68.07;49.65;;;;;;;17.66;100.00;100948.75;2047618;28;25074;-74
2022/08/17 03:12:17;;;;;;;76.43;52.35;;;;;;;17.65;100.00;100947.00;2047703;28;20992;-74
2022/08/17 03:13:19;;;;;;;67.28;47.63;;;;;;;17.61;100.00;100948.13;2047597;28;20126;-73
2022/08/17 03:14:21;;;;;;;83.75;56.92;;;;;;;17.61;100.00;100946.28;2047392;28;29941;-74
2022/08/17 03:15:32;;;;;;;85.25;55.92;;;;;;;17.60;100.00;100949.06;2047719;28;20044;-74
2022/08/17 03:16:36;;;;;;;95.03;57.85;;;;;;;17.58;100.00;100943.72;2047408;28;25539;-74
2022/08/17 03:17:39;;;;;;;87.20;60.28;;;;;;;17.59;100.00;100948.19;2047196;28;24477;-74
2022/08/17 03:18:41;;;;;;;92.18;60.60;;;;;;;17.65;100.00;100947.00;2047710;28;20091;-74
2022/08/17 03:19:46;;;;;;;94.43;62.63;;;;;;;17.66;100.00;100943.34;2047559;28;20778;-74
2022/08/17 03:20:48;;;;;;;101.20;62.78;;;;;;;17.65;100.00;100947.00;2046973;28;33205;-74
2022/08/17 03:21:50;;;;;;;94.57;61.20;;;;;;;17.64;100.00;100951.53;2054923;28;20927;-72
2022/08/17 03:22:55;;;;;;;84.93;55.70;;;;;;;17.61;100.00;100959.81;2054078;28;41185;-73
2022/08/17 03:24:02;;;;;;;87.35;58.13;;;;;;;17.56;100.00;100946.50;2047866;28;20949;-74
2022/08/17 03:25:11;;;;;;;88.47;58.45;;;;;;;17.58;100.00;100953.69;2047408;28;22191;-74
2022/08/17 03:26:14;;;;;;;104.30;63.80;;;;;;;17.61;100.00;100948.97;2047119;28;29444;-74
2022/08/17 03:27:16;;;;;;;106.53;65.65;;;;;;;17.61;100.00;100951.69;2047550;28;23828;-74
2022/08/17 03:28:18;;;;;;;103.85;68.45;;;;;;;17.62;100.00;100945.34;2046427;28;36217;-74
2022/08/17 03:29:20;;;;;;;102.35;66.28;;;;;;;17.64;100.00;100948.84;2047940;28;20648;-74
2022/08/17 03:30:26;;;;;;;110.50;69.38;;;;;;;17.66;100.00;100954.19;2047136;28;24911;-74
2022/08/17 03:31:30;;;;;;;102.45;68.00;;;;;;;17.65;100.00;100953.28;2055173;28;23520;-74
2022/08/17 03:32:42;;;;;;;117.45;73.80;;;;;;;17.68;100.00;100947.72;2053727;28;26451;-74
2022/08/17 03:33:46;;;;;;;100.88;65.20;;;;;;;17.63;100.00;100949.78;2047413;28;29635;-74
2022/08/17 03:34:48;;;;;;;106.20;68.60;;;;;;;17.60;100.00;100944.50;2046833;28;23086;-75
2022/08/17 03:35:50;;;;;;;112.90;70.68;;;;;;;17.62;100.00;100945.34;2047471;28;26198;-74
2022/08/17 03:36:52;;;;;;;111.80;70.53;;;;;;;17.66;100.00;100941.50;2047092;28;28548;-74
2022/08/17 03:37:55;;;;;;;109.30;69.93;;;;;;;17.65;100.00;100941.56;2046789;28;30153;-74
2022/08/17 03:39:01;;;;;;;109.95;69.82;;;;;;;17.68;100.00;100952.25;2047475;28;22498;-74
2022/08/17 03:40:06;;;;;;;99.50;66.70;;;;;;;17.65;100.00;100947.84;2047503;28;24122;-74
2022/08/17 03:41:08;;;;;;;112.45;71.97;;;;;;;17.68;100.00;100946.84;2046963;28;24171;-74
2022/08/17 03:42:18;;;;;;;110.20;70.35;;;;;;;17.67;100.00;100950.50;2047513;28;26355;-73
2022/08/17 03:43:33;;;;;;;98.07;65.07;;;;;;;17.61;100.00;100946.28;2054643;28;24456;-74
2022/08/17 03:44:35;;;;;;;95.85;61.65;;;;;;;17.62;100.00;100949.84;2052693;28;20042;-74
2022/08/17 03:56:43;;;;;;;120.75;72.57;;;;;;;17.62;100.00;100953.47;2047397;28;22623;-74
2022/08/17 03:57:45;;;;;;;121.38;75.40;;;;;;;17.63;100.00;100948.91;2047098;28;23503;-74
2022/08/17 03:58:47;;;;;;;112.15;70.95;;;;;;;17.58;100.00;100956.41;2047111;28;27788;-75
2022/08/17 03:59:50;;;;;;;132.48;78.15;;;;;;;17.60;100.00;100954.47;2046728;28;30993;-75
2022/08/17 04:00:54;;;;;;;130.18;78.88;;;;;;;17.61;100.00;100956.25;2047034;28;31859;-75
2022/08/17 04:02:02;;;;;;;128.50;78.43;;;;;;;17.60;100.00;100957.19;2047330;28;21804;-75
2022/08/17 04:03:05;;;;;;;121.85;75.28;;;;;;;17.59;100.00;100956.31;2054585;28;29445;-74
2022/08/17 04:04:07;;;;;;;124.57;78.35;;;;;;;17.60;100.00;100959.88;2053631;28;24583;-75
2022/08/17 04:05:09;;;;;;;119.88;72.45;;;;;;;17.59;100.00;100956.31;2046064;28;39687;-75
2022/08/17 04:06:10;;;;;;;124.85;76.78;;;;;;;17.61;100.00;100956.25;2046835;28;20043;-74
2022/08/17 04:07:15;;;;;;;122.75;75.00;;;;;;;17.57;100.00;100958.22;2047337;28;22167;-75
2022/08/17 04:08:17;;;;;;;124.40;76.45;;;;;;;17.61;100.00;100958.94;2046606;28;38393;-74
2022/08/17 04:09:19;;;;;;;117.03;72.07;;;;;;;17.56;100.00;100962.75;2054392;28;28306;-75
2022/08/17 04:10:21;;;;;;;108.70;69.43;;;;;;;17.54;100.00;100961.97;2054418;28;30911;-75
2022/08/17 04:11:27;;;;;;;112.40;68.38;;;;;;;17.55;100.00;100962.84;2054550;28;29179;-75
2022/08/17 04:12:42;;;;;;;121.25;72.05;;;;;;;17.61;100.00;100958.94;2048558;28;28172;-75
2022/08/17 04:13:43;;;;;;;109.57;70.50;;;;;;;17.56;100.00;100959.19;2046712;28;26838;-75
2022/08/17 04:14:45;;;;;;;114.07;71.75;;;;;;;17.59;100.00;100955.44;2046983;28;20794;-75
2022/08/17 04:15:58;;;;;;;100.20;63.13;;;;;;;17.54;100.00;100964.66;2046902;28;29760;-75
2022/08/17 04:17:00;;;;;;;113.28;68.40;;;;;;;17.55;100.00;100957.44;2053786;28;32795;-75
2022/08/17 04:18:02;;;;;;;112.60;69.55;;;;;;;17.55;100.00;100960.16;2054061;28;28270;-75
2022/08/17 04:19:05;;;;;;;107.63;67.03;;;;;;;17.52;100.00;100958.47;2047252;28;27322;-75
2022/08/17 04:20:08;;;;;;;102.30;65.03;;;;;;;17.54;100.00;100959.25;2047351;28;20039;-75
2022/08/17 04:21:10;;;;;;;112.47;70.35;;;;;;;17.54;100.00;100967.38;2047162;28;27197;-75
2022/08/17 04:22:12;;;;;;;115.22;71.20;;;;;;;17.55;100.00;100963.72;2047293;28;23118;-75
2022/08/17 04:23:32;;;;;;;108.15;67.13;;;;;;;17.53;100.00;100960.22;2046478;28;29816;-75
2022/08/17 04:24:34;;;;;;;98.85;63.47;;;;;;;17.51;100.00;100963.94;2046018;28;27260;-75
2022/08/17 04:25:42;;;;;;;104.38;63.90;;;;;;;17.49;100.00;100964.03;2047211;28;29992;-75
2022/08/17 04:26:43;;;;;;;108.80;67.60;;;;;;;17.49;100.00;100961.31;2047182;28;27019;-75
2022/08/17 04:27:55;;;;;;;105.15;65.88;;;;;;;17.49;100.00;100965.84;2047288;28;23189;-75
2022/08/17 04:28:59;;;;;;;98.03;62.35;;;;;;;17.50;100.00;100965.78;2047071;28;21722;-75
2022/08/17 04:30:05;;;;;;;102.47;65.47;;;;;;;17.54;100.00;100964.66;2046741;28;34892;-74
2022/08/17 04:31:12;;;;;;;112.22;69.00;;;;;;;17.56;100.00;100965.47;2047027;28;25445;-75
2022/08/17 04:32:20;;;;;;;108.95;65.63;;;;;;;17.55;100.00;100968.28;2047114;28;38910;-75
2022/08/17 04:33:29;;;;;;;100.07;62.75;;;;;;;17.56;100.00;100970.88;2046915;28;30733;-75
2022/08/17 04:34:32;;;;;;;105.63;67.00;;;;;;;17.58;100.00;100970.78;2046877;28;27291;-75
2022/08/17 04:35:42;;;;;;;104.43;66.28;;;;;;;17.61;100.00;100970.66;2046298;28;26200;-74
2022/08/17 04:36:44;;;;;;;106.65;67.05;;;;;;;17.64;100.00;100969.59;2047345;28;24152;-75
2022/08/17 04:37:49;;;;;;;103.57;65.63;;;;;;;17.67;100.00;100977.56;2046359;28;36509;-75
2022/08/17 04:38:50;;;;;;;103.97;67.45;;;;;;;17.69;100.00;100970.25;2047102;28;28327;-75
2022/08/17 04:42:05;;;;;;;100.43;65.60;;;;;;;17.71;100.00;100973.75;2046695;28;30283;-75
2022/08/17 04:43:10;;;;;;;91.82;58.05;;;;;;;17.84;100.00;100972.16;2037929;29;31534;-75
2022/08/17 04:44:12;;;;;;;90.10;59.75;;;;;;;17.89;100.00;100978.25;2038452;29;28481;-75
2022/08/17 04:45:16;;;;;;;99.28;61.20;;;;;;;17.92;100.00;100978.06;2038284;28;20989;-75
2022/08/17 04:46:23;;;;;;;86.95;58.63;;;;;;;17.96;100.00;100980.59;2039263;28;24696;-75
2022/08/17 04:47:25;;;;;;;88.13;60.10;;;;;;;17.98;100.00;100975.97;2040392;29;20319;-75
2022/08/17 04:48:38;;;;;;;87.88;59.60;;;;;;;18.00;100.00;100980.38;2040408;29;20040;-75
2022/08/17 04:49:40;;;;;;;82.40;55.70;;;;;;;18.08;100.00;100983.53;2040418;28;27583;-75
2022/08/17 04:50:49;;;;;;;80.30;57.15;;;;;;;18.16;100.00;100979.53;2040601;28;22572;-75
2022/08/17 04:51:51;;;;;;;69.57;49.85;;;;;;;18.18;100.00;100983.94;2047356;28;37507;-75
2022/08/17 04:52:55;;;;;;;79.80;55.75;;;;;;;18.18;100.00;100983.03;2047090;28;20476;-75
2022/08/17 04:54:14;;;;;;;74.50;53.63;;;;;;;18.16;100.00;100984.97;2040306;28;22472;-75
2022/08/17 04:55:16;;;;;;;71.95;53.28;;;;;;;18.14;100.00;100979.63;2040627;29;32333;-75
2022/08/17 04:56:18;;;;;;;75.45;54.17;;;;;;;18.15;100.00;100981.38;2040274;28;22023;-75
2022/08/17 04:57:19;;;;;;;78.72;53.40;;;;;;;18.18;100.00;100986.63;2040005;28;30010;-75
2022/08/17 04:58:24;;;;;;;68.53;51.78;;;;;;;18.19;100.00;100988.38;2047661;28;22187;-75
2022/08/17 04:59:26;;;;;;;68.30;51.40;;;;;;;18.20;100.00;100989.28;2047136;28;29910;-75
2022/08/17 05:00:28;;;;;;;72.43;51.70;;;;;;;18.24;100.00;100977.28;2039750;29;33675;-76
2022/08/17 05:01:34;;;;;;;70.72;51.88;;;;;;;18.31;100.00;100978.72;2040561;28;24140;-75
2022/08/17 05:02:48;;;;;;;68.82;48.83;;;;;;;18.41;100.00;100987.19;2040253;28;31573;-74
2022/08/17 05:03:58;;;;;;;65.32;49.92;;;;;;;18.42;100.00;100986.25;2040463;29;28493;-75
2022/08/17 05:04:59;;;;;;;67.72;49.78;;;;;;;18.39;100.00;100986.41;2040522;28;22282;-75
2022/08/17 05:06:01;;;;;;;61.83;48.03;;;;;;;18.47;100.00;100978.75;2040315;28;26533;-75
2022/08/17 05:07:05;;;;;;;62.90;47.17;;;;;;;18.60;100.00;100990.66;2048005;28;20864;-75